sensor_id;sensor_type;location;lat;lon;timestamp;pressure;altitude;pressure_sealevel;temperature;humidity
54459;BME280;40368;49.350;8.152;2024-03-25T00:00:55;994.6;;;12.54;49.85
54459;BME280;40368;49.350;8.152;2024-03-25T00:01:56;994.6;;;12.5;49.9
54459;BME280;40368;49.350;8.152;2024-03-25T00:02:55;994.6;;;12.48;49.77
54459;BME280;40368;49.350;8.152;2024-03-25T00:03:56;994.7;;;12.46;49.86
54459;BME280;40368;49.350;8.152;2024-03-25T00:04:55;994.7;;;12.44;50.08
54459;BME280;40368;49.350;8.152;2024-03-25T00:05:55;994.7;;;12.44;49.95
54459;BME280;40368;49.350;8.152;2024-03-25T00:06:55;994.7;;;12.39;50.18
54459;BME280;40368;49.350;8.152;2024-03-25T00:07:56;994.7;;;12.37;50.15
54459;BME280;40368;49.350;8.152;2024-03-25T00:08:56;994.7;;;12.34;50.29
54459;BME280;40368;49.350;8.152;2024-03-25T00:09:55;994.6;;;12.34;50.04
54459;BME280;40368;49.350;8.152;2024-03-25T00:10:55;994.7;;;12.32;50.32
54459;BME280;40368;49.350;8.152;2024-03-25T00:11:55;994.7;;;12.31;50.29
54459;BME280;40368;49.350;8.152;2024-03-25T00:12:55;994.7;;;12.28;50.37
54459;BME280;40368;49.350;8.152;2024-03-25T00:13:55;994.7;;;12.29;50.23
54459;BME280;40368;49.350;8.152;2024-03-25T00:14:55;994.7;;;12.28;50.24
54459;BME280;40368;49.350;8.152;2024-03-25T00:15:55;994.7;;;12.25;50.51
54459;BME280;40368;49.350;8.152;2024-03-25T00:16:55;994.7;;;12.21;50.43
54459;BME280;40368;49.350;8.152;2024-03-25T00:17:55;994.6;;;12.21;50.61
54459;BME280;40368;49.350;8.152;2024-03-25T00:18:55;994.6;;;12.21;50.44
54459;BME280;40368;49.350;8.152;2024-03-25T00:19:55;994.6;;;12.22;50.35
54459;BME280;40368;49.350;8.152;2024-03-25T00:20:55;994.7;;;12.23;50.26
54459;BME280;40368;49.350;8.152;2024-03-25T00:21:55;994.7;;;12.24;50.45
54459;BME280;40368;49.350;8.152;2024-03-25T00:22:55;994.6;;;12.25;50.35
54459;BME280;40368;49.350;8.152;2024-03-25T00:23:55;994.6;;;12.26;50.25
54459;BME280;40368;49.350;8.152;2024-03-25T00:24:56;994.6;;;12.22;50.38
54459;BME280;40368;49.350;8.152;2024-03-25T00:25:55;994.6;;;12.2;50.5
54459;BME280;40368;49.350;8.152;2024-03-25T00:26:56;994.6;;;12.21;50.5
54459;BME280;40368;49.350;8.152;2024-03-25T00:27:55;994.7;;;12.23;50.41
54459;BME280;40368;49.350;8.152;2024-03-25T00:28:55;994.7;;;12.22;50.15
54459;BME280;40368;49.350;8.152;2024-03-25T00:29:56;994.7;;;12.2;50.32
54459;BME280;40368;49.350;8.152;2024-03-25T00:30:55;994.7;;;12.17;50.4
54459;BME280;40368;49.350;8.152;2024-03-25T00:31:55;994.7;;;12.13;50.51
54459;BME280;40368;49.350;8.152;2024-03-25T00:32:55;994.7;;;12.13;50.35
54459;BME280;40368;49.350;8.152;2024-03-25T00:33:55;994.7;;;12.12;50.61
54459;BME280;40368;49.350;8.152;2024-03-25T00:34:55;994.7;;;12.1;50.55
54459;BME280;40368;49.350;8.152;2024-03-25T00:35:55;994.7;;;12.11;50.6
54459;BME280;40368;49.350;8.152;2024-03-25T00:36:56;994.6;;;12.09;50.66
54459;BME280;40368;49.350;8.152;2024-03-25T00:37:56;994.7;;;12.08;50.56
54459;BME280;40368;49.350;8.152;2024-03-25T00:38:55;994.7;;;12.05;50.75
54459;BME280;40368;49.350;8.152;2024-03-25T00:39:55;994.7;;;12.01;50.78
54459;BME280;40368;49.350;8.152;2024-03-25T00:40:55;994.6;;;11.99;50.8
54459;BME280;40368;49.350;8.152;2024-03-25T00:41:55;994.6;;;11.95;50.89
54459;BME280;40368;49.350;8.152;2024-03-25T00:42:55;994.7;;;11.96;50.89
54459;BME280;40368;49.350;8.152;2024-03-25T00:43:55;994.7;;;11.97;50.81
54459;BME280;40368;49.350;8.152;2024-03-25T00:44:55;994.7;;;11.96;50.83
54459;BME280;40368;49.350;8.152;2024-03-25T00:45:55;994.7;;;11.99;50.9
54459;BME280;40368;49.350;8.152;2024-03-25T00:46:55;994.7;;;11.99;50.79
54459;BME280;40368;49.350;8.152;2024-03-25T00:47:55;994.7;;;12;50.92
54459;BME280;40368;49.350;8.152;2024-03-25T00:48:56;994.7;;;12.01;50.71
54459;BME280;40368;49.350;8.152;2024-03-25T00:49:56;994.7;;;12.02;50.74
54459;BME280;40368;49.350;8.152;2024-03-25T00:50:55;994.7;;;12.03;50.6
54459;BME280;40368;49.350;8.152;2024-03-25T00:51:55;994.6;;;11.95;50.74
54459;BME280;40368;49.350;8.152;2024-03-25T00:52:55;994.7;;;11.9;50.94
54459;BME280;40368;49.350;8.152;2024-03-25T00:53:56;994.7;;;11.87;51.03
54459;BME280;40368;49.350;8.152;2024-03-25T00:54:56;994.7;;;11.83;51.12
54459;BME280;40368;49.350;8.152;2024-03-25T00:55:55;994.8;;;11.83;51.29
54459;BME280;40368;49.350;8.152;2024-03-25T00:56:56;994.7;;;11.82;51.26
54459;BME280;40368;49.350;8.152;2024-03-25T00:57:55;994.7;;;11.76;51.3
54459;BME280;40368;49.350;8.152;2024-03-25T00:58:55;994.7;;;11.74;51.46
54459;BME280;40368;49.350;8.152;2024-03-25T00:59:55;994.7;;;11.75;51.4
54459;BME280;40368;49.350;8.152;2024-03-25T01:00:55;994.7;;;11.75;51.16
54459;BME280;40368;49.350;8.152;2024-03-25T01:01:55;994.7;;;11.74;51.15
54459;BME280;40368;49.350;8.152;2024-03-25T01:02:55;994.7;;;11.71;51.25
54459;BME280;40368;49.350;8.152;2024-03-25T01:03:55;994.7;;;11.71;51.29
54459;BME280;40368;49.350;8.152;2024-03-25T01:04:56;994.7;;;11.68;51.49
54459;BME280;40368;49.350;8.152;2024-03-25T01:05:55;994.7;;;11.71;51.5
54459;BME280;40368;49.350;8.152;2024-03-25T01:06:56;994.7;;;11.73;51.35
54459;BME280;40368;49.350;8.152;2024-03-25T01:07:55;994.7;;;11.76;51.23
54459;BME280;40368;49.350;8.152;2024-03-25T01:08:55;994.7;;;11.8;51.26
54459;BME280;40368;49.350;8.152;2024-03-25T01:09:56;994.7;;;11.77;51.12
54459;BME280;40368;49.350;8.152;2024-03-25T01:10:55;994.7;;;11.75;51.21
54459;BME280;40368;49.350;8.152;2024-03-25T01:11:56;994.7;;;11.73;51.18
54459;BME280;40368;49.350;8.152;2024-03-25T01:12:56;994.7;;;11.73;51.16
54459;BME280;40368;49.350;8.152;2024-03-25T01:13:56;994.7;;;11.72;51.22
54459;BME280;40368;49.350;8.152;2024-03-25T01:14:55;994.7;;;11.71;51.29
54459;BME280;40368;49.350;8.152;2024-03-25T01:15:55;994.7;;;11.7;51.18
54459;BME280;40368;49.350;8.152;2024-03-25T01:16:55;994.7;;;11.69;51.18
54459;BME280;40368;49.350;8.152;2024-03-25T01:17:56;994.7;;;11.68;51.16
54459;BME280;40368;49.350;8.152;2024-03-25T01:18:55;994.7;;;11.71;51.33
54459;BME280;40368;49.350;8.152;2024-03-25T01:19:55;994.7;;;11.7;51.23
54459;BME280;40368;49.350;8.152;2024-03-25T01:20:55;994.7;;;11.65;51.35
54459;BME280;40368;49.350;8.152;2024-03-25T01:21:55;994.8;;;11.66;51.24
54459;BME280;40368;49.350;8.152;2024-03-25T01:22:55;994.8;;;11.64;51.38
54459;BME280;40368;49.350;8.152;2024-03-25T01:23:55;994.8;;;11.62;51.36
54459;BME280;40368;49.350;8.152;2024-03-25T01:24:55;994.8;;;11.63;51.48
54459;BME280;40368;49.350;8.152;2024-03-25T01:25:56;994.8;;;11.62;51.3
54459;BME280;40368;49.350;8.152;2024-03-25T01:26:55;994.8;;;11.6;51.39
54459;BME280;40368;49.350;8.152;2024-03-25T01:27:55;994.8;;;11.61;51.33
54459;BME280;40368;49.350;8.152;2024-03-25T01:28:55;994.8;;;11.59;51.34
54459;BME280;40368;49.350;8.152;2024-03-25T01:29:56;994.8;;;11.59;51.58
54459;BME280;40368;49.350;8.152;2024-03-25T01:30:55;994.8;;;11.58;51.35
54459;BME280;40368;49.350;8.152;2024-03-25T01:31:55;994.8;;;11.52;51.6
54459;BME280;40368;49.350;8.152;2024-03-25T01:32:55;994.8;;;11.46;51.62
54459;BME280;40368;49.350;8.152;2024-03-25T01:33:56;994.8;;;11.42;51.88
54459;BME280;40368;49.350;8.152;2024-03-25T01:34:55;994.8;;;11.43;51.83
54459;BME280;40368;49.350;8.152;2024-03-25T01:35:56;994.8;;;11.44;51.77
54459;BME280;40368;49.350;8.152;2024-03-25T01:36:55;994.8;;;11.42;51.88
54459;BME280;40368;49.350;8.152;2024-03-25T01:37:55;994.7;;;11.4;51.85
54459;BME280;40368;49.350;8.152;2024-03-25T01:38:55;994.8;;;11.36;51.94
54459;BME280;40368;49.350;8.152;2024-03-25T01:39:55;994.8;;;11.37;51.93
54459;BME280;40368;49.350;8.152;2024-03-25T01:40:55;994.8;;;11.41;51.75
54459;BME280;40368;49.350;8.152;2024-03-25T01:41:56;994.7;;;11.43;51.83
54459;BME280;40368;49.350;8.152;2024-03-25T01:42:56;994.7;;;11.47;51.74
54459;BME280;40368;49.350;8.152;2024-03-25T01:43:57;994.7;;;11.48;51.7
54459;BME280;40368;49.350;8.152;2024-03-25T01:44:55;994.7;;;11.43;51.47
54459;BME280;40368;49.350;8.152;2024-03-25T01:45:55;994.7;;;11.41;51.84
54459;BME280;40368;49.350;8.152;2024-03-25T01:47:08;994.7;;;11.44;51.68
54459;BME280;40368;49.350;8.152;2024-03-25T01:47:58;994.7;;;11.44;51.76
54459;BME280;40368;49.350;8.152;2024-03-25T01:48:57;994.7;;;11.47;51.78
54459;BME280;40368;49.350;8.152;2024-03-25T01:50:02;994.7;;;11.48;51.63
54459;BME280;40368;49.350;8.152;2024-03-25T01:50:57;994.7;;;11.5;51.59
54459;BME280;40368;49.350;8.152;2024-03-25T01:51:55;994.7;;;11.51;51.42
54459;BME280;40368;49.350;8.152;2024-03-25T01:53:02;994.7;;;11.48;51.68
54459;BME280;40368;49.350;8.152;2024-03-25T01:53:55;994.6;;;11.45;51.71
54459;BME280;40368;49.350;8.152;2024-03-25T01:54:58;994.7;;;11.47;51.62
54459;BME280;40368;49.350;8.152;2024-03-25T01:55:55;994.7;;;11.46;51.66
54459;BME280;40368;49.350;8.152;2024-03-25T01:56:56;994.7;;;11.43;51.72
54459;BME280;40368;49.350;8.152;2024-03-25T01:57:55;994.7;;;11.43;51.64
54459;BME280;40368;49.350;8.152;2024-03-25T01:58:55;994.7;;;11.43;51.67
54459;BME280;40368;49.350;8.152;2024-03-25T01:59:55;994.7;;;11.4;52.01
54459;BME280;40368;49.350;8.152;2024-03-25T02:00:55;994.7;;;11.39;51.85
54459;BME280;40368;49.350;8.152;2024-03-25T02:01:55;994.7;;;11.37;51.6
54459;BME280;40368;49.350;8.152;2024-03-25T02:02:55;994.7;;;11.35;52.03
54459;BME280;40368;49.350;8.152;2024-03-25T02:03:56;994.7;;;11.34;51.79
54459;BME280;40368;49.350;8.152;2024-03-25T02:04:55;994.7;;;11.33;51.68
54459;BME280;40368;49.350;8.152;2024-03-25T02:05:57;994.7;;;11.32;51.62
54459;BME280;40368;49.350;8.152;2024-03-25T02:06:55;994.7;;;11.31;51.63
54459;BME280;40368;49.350;8.152;2024-03-25T02:07:55;994.6;;;11.3;51.67
54459;BME280;40368;49.350;8.152;2024-03-25T02:08:55;994.6;;;11.29;51.6
54459;BME280;40368;49.350;8.152;2024-03-25T02:09:56;994.7;;;11.27;51.69
54459;BME280;40368;49.350;8.152;2024-03-25T02:10:56;994.6;;;11.25;51.62
54459;BME280;40368;49.350;8.152;2024-03-25T02:11:56;994.6;;;11.24;51.72
54459;BME280;40368;49.350;8.152;2024-03-25T02:12:55;994.6;;;11.25;51.75
54459;BME280;40368;49.350;8.152;2024-03-25T02:13:56;994.6;;;11.27;51.92
54459;BME280;40368;49.350;8.152;2024-03-25T02:14:55;994.6;;;11.29;51.44
54459;BME280;40368;49.350;8.152;2024-03-25T02:15:55;994.6;;;11.29;51.52
54459;BME280;40368;49.350;8.152;2024-03-25T02:16:55;994.6;;;11.28;51.63
54459;BME280;40368;49.350;8.152;2024-03-25T02:17:55;994.6;;;11.28;51.51
54459;BME280;40368;49.350;8.152;2024-03-25T02:18:55;994.6;;;11.26;51.56
54459;BME280;40368;49.350;8.152;2024-03-25T02:19:55;994.6;;;11.22;51.51
54459;BME280;40368;49.350;8.152;2024-03-25T02:20:56;994.6;;;11.21;51.58
54459;BME280;40368;49.350;8.152;2024-03-25T02:21:55;994.5;;;11.21;51.42
54459;BME280;40368;49.350;8.152;2024-03-25T02:22:55;994.6;;;11.23;51.55
54459;BME280;40368;49.350;8.152;2024-03-25T02:23:56;994.6;;;11.23;51.55
54459;BME280;40368;49.350;8.152;2024-03-25T02:24:56;994.6;;;11.24;51.48
54459;BME280;40368;49.350;8.152;2024-03-25T02:25:55;994.6;;;11.21;51.47
54459;BME280;40368;49.350;8.152;2024-03-25T02:26:55;994.6;;;11.2;51.48
54459;BME280;40368;49.350;8.152;2024-03-25T02:27:55;994.6;;;11.19;51.46
54459;BME280;40368;49.350;8.152;2024-03-25T02:28:56;994.6;;;11.2;51.45
54459;BME280;40368;49.350;8.152;2024-03-25T02:30:00;994.6;;;11.16;51.32
54459;BME280;40368;49.350;8.152;2024-03-25T02:30:56;994.6;;;11.13;51.19
54459;BME280;40368;49.350;8.152;2024-03-25T02:31:55;994.5;;;11.08;51.56
54459;BME280;40368;49.350;8.152;2024-03-25T02:32:55;994.6;;;11.08;51.55
54459;BME280;40368;49.350;8.152;2024-03-25T02:33:56;994.5;;;11.08;51.53
54459;BME280;40368;49.350;8.152;2024-03-25T02:34:56;994.5;;;11.07;51.51
54459;BME280;40368;49.350;8.152;2024-03-25T02:35:55;994.5;;;11.05;51.35
54459;BME280;40368;49.350;8.152;2024-03-25T02:36:56;994.5;;;11.06;51.57
54459;BME280;40368;49.350;8.152;2024-03-25T02:37:55;994.5;;;11.05;51.5
54459;BME280;40368;49.350;8.152;2024-03-25T02:38:55;994.4;;;11.04;51.4
54459;BME280;40368;49.350;8.152;2024-03-25T02:39:57;994.4;;;10.99;51.45
54459;BME280;40368;49.350;8.152;2024-03-25T02:40:56;994.4;;;10.99;51.62
54459;BME280;40368;49.350;8.152;2024-03-25T02:41:56;994.3;;;10.98;51.46
54459;BME280;40368;49.350;8.152;2024-03-25T02:42:56;994.4;;;10.99;51.6
54459;BME280;40368;49.350;8.152;2024-03-25T02:43:55;994.3;;;10.99;51.45
54459;BME280;40368;49.350;8.152;2024-03-25T02:44:55;994.3;;;10.91;51.34
54459;BME280;40368;49.350;8.152;2024-03-25T02:45:55;994.3;;;10.89;51.76
54459;BME280;40368;49.350;8.152;2024-03-25T02:46:55;994.3;;;10.9;51.79
54459;BME280;40368;49.350;8.152;2024-03-25T02:47:55;994.3;;;10.92;51.63
54459;BME280;40368;49.350;8.152;2024-03-25T02:48:55;994.3;;;10.9;51.41
54459;BME280;40368;49.350;8.152;2024-03-25T02:49:56;994.3;;;10.88;51.63
54459;BME280;40368;49.350;8.152;2024-03-25T02:50:55;994.3;;;10.86;51.65
54459;BME280;40368;49.350;8.152;2024-03-25T02:51:55;994.4;;;10.84;51.76
54459;BME280;40368;49.350;8.152;2024-03-25T02:52:55;994.4;;;10.82;51.63
54459;BME280;40368;49.350;8.152;2024-03-25T02:53:55;994.4;;;10.8;51.8
54459;BME280;40368;49.350;8.152;2024-03-25T02:54:56;994.4;;;10.79;51.81
54459;BME280;40368;49.350;8.152;2024-03-25T02:55:55;994.4;;;10.8;51.89
54459;BME280;40368;49.350;8.152;2024-03-25T02:56:56;994.4;;;10.82;51.79
54459;BME280;40368;49.350;8.152;2024-03-25T02:57:55;994.4;;;10.8;51.61
54459;BME280;40368;49.350;8.152;2024-03-25T02:58:56;994.4;;;10.76;51.85
54459;BME280;40368;49.350;8.152;2024-03-25T02:59:55;994.4;;;10.79;51.98
54459;BME280;40368;49.350;8.152;2024-03-25T03:00:55;994.4;;;10.79;51.76
54459;BME280;40368;49.350;8.152;2024-03-25T03:01:55;994.4;;;10.78;51.68
54459;BME280;40368;49.350;8.152;2024-03-25T03:02:55;994.4;;;10.78;51.73
54459;BME280;40368;49.350;8.152;2024-03-25T03:03:55;994.4;;;10.81;51.68
54459;BME280;40368;49.350;8.152;2024-03-25T03:04:55;994.4;;;10.82;51.43
54459;BME280;40368;49.350;8.152;2024-03-25T03:05:55;994.4;;;10.82;51.61
54459;BME280;40368;49.350;8.152;2024-03-25T03:06:55;994.4;;;10.81;51.77
54459;BME280;40368;49.350;8.152;2024-03-25T03:07:55;994.4;;;10.78;51.62
54459;BME280;40368;49.350;8.152;2024-03-25T03:08:55;994.4;;;10.78;51.51
54459;BME280;40368;49.350;8.152;2024-03-25T03:09:55;994.4;;;10.77;51.67
54459;BME280;40368;49.350;8.152;2024-03-25T03:10:55;994.4;;;10.76;51.66
54459;BME280;40368;49.350;8.152;2024-03-25T03:11:55;994.4;;;10.76;51.57
54459;BME280;40368;49.350;8.152;2024-03-25T03:12:55;994.4;;;10.72;51.63
54459;BME280;40368;49.350;8.152;2024-03-25T03:13:55;994.4;;;10.69;51.62
54459;BME280;40368;49.350;8.152;2024-03-25T03:14:55;994.4;;;10.69;51.85
54459;BME280;40368;49.350;8.152;2024-03-25T03:15:55;994.4;;;10.7;51.7
54459;BME280;40368;49.350;8.152;2024-03-25T03:16:55;994.3;;;10.67;51.64
54459;BME280;40368;49.350;8.152;2024-03-25T03:17:56;994.4;;;10.67;51.73
54459;BME280;40368;49.350;8.152;2024-03-25T03:18:55;994.3;;;10.68;51.69
54459;BME280;40368;49.350;8.152;2024-03-25T03:19:55;994.3;;;10.67;51.74
54459;BME280;40368;49.350;8.152;2024-03-25T03:20:55;994.4;;;10.67;51.95
54459;BME280;40368;49.350;8.152;2024-03-25T03:21:55;994.3;;;10.66;51.85
54459;BME280;40368;49.350;8.152;2024-03-25T03:22:55;994.3;;;10.65;51.7
54459;BME280;40368;49.350;8.152;2024-03-25T03:23:55;994.3;;;10.62;51.9
54459;BME280;40368;49.350;8.152;2024-03-25T03:24:56;994.3;;;10.55;51.79
54459;BME280;40368;49.350;8.152;2024-03-25T03:25:55;994.3;;;10.51;52.15
54459;BME280;40368;49.350;8.152;2024-03-25T03:26:55;994.3;;;10.5;52.25
54459;BME280;40368;49.350;8.152;2024-03-25T03:27:55;994.3;;;10.5;52.18
54459;BME280;40368;49.350;8.152;2024-03-25T03:28:56;994.3;;;10.5;52.1
54459;BME280;40368;49.350;8.152;2024-03-25T03:29:55;994.3;;;10.49;52.53
54459;BME280;40368;49.350;8.152;2024-03-25T03:30:55;994.3;;;10.5;52.25
54459;BME280;40368;49.350;8.152;2024-03-25T03:31:55;994.3;;;10.51;52.27
54459;BME280;40368;49.350;8.152;2024-03-25T03:32:55;994.3;;;10.54;52.12
54459;BME280;40368;49.350;8.152;2024-03-25T03:33:55;994.3;;;10.52;51.99
54459;BME280;40368;49.350;8.152;2024-03-25T03:34:55;994.3;;;10.46;52.34
54459;BME280;40368;49.350;8.152;2024-03-25T03:35:55;994.4;;;10.4;52.3
54459;BME280;40368;49.350;8.152;2024-03-25T03:36:56;994.3;;;10.38;52.6
54459;BME280;40368;49.350;8.152;2024-03-25T03:37:55;994.3;;;10.38;52.53
54459;BME280;40368;49.350;8.152;2024-03-25T03:38:55;994.4;;;10.38;52.61
54459;BME280;40368;49.350;8.152;2024-03-25T03:39:55;994.3;;;10.37;52.55
54459;BME280;40368;49.350;8.152;2024-03-25T03:40:56;994.4;;;10.38;52.55
54459;BME280;40368;49.350;8.152;2024-03-25T03:41:56;994.4;;;10.39;52.57
54459;BME280;40368;49.350;8.152;2024-03-25T03:42:55;994.3;;;10.4;52.61
54459;BME280;40368;49.350;8.152;2024-03-25T03:43:55;994.4;;;10.4;52.63
54459;BME280;40368;49.350;8.152;2024-03-25T03:44:55;994.4;;;10.39;52.42
54459;BME280;40368;49.350;8.152;2024-03-25T03:45:55;994.4;;;10.38;52.39
54459;BME280;40368;49.350;8.152;2024-03-25T03:46:55;994.3;;;10.36;52.45
54459;BME280;40368;49.350;8.152;2024-03-25T03:47:55;994.3;;;10.35;52.7
54459;BME280;40368;49.350;8.152;2024-03-25T03:48:55;994.4;;;10.34;52.66
54459;BME280;40368;49.350;8.152;2024-03-25T03:49:55;994.3;;;10.34;52.85
54459;BME280;40368;49.350;8.152;2024-03-25T03:50:55;994.4;;;10.38;52.73
54459;BME280;40368;49.350;8.152;2024-03-25T03:51:55;994.4;;;10.4;52.54
54459;BME280;40368;49.350;8.152;2024-03-25T03:52:56;994.4;;;10.41;52.74
54459;BME280;40368;49.350;8.152;2024-03-25T03:53:55;994.4;;;10.44;52.61
54459;BME280;40368;49.350;8.152;2024-03-25T03:54:55;994.4;;;10.45;52.35
54459;BME280;40368;49.350;8.152;2024-03-25T03:55:56;994.4;;;10.45;52.49
54459;BME280;40368;49.350;8.152;2024-03-25T03:56:55;994.4;;;10.45;52.56
54459;BME280;40368;49.350;8.152;2024-03-25T03:57:56;994.4;;;10.47;52.38
54459;BME280;40368;49.350;8.152;2024-03-25T03:58:56;994.4;;;10.45;52.24
54459;BME280;40368;49.350;8.152;2024-03-25T03:59:55;994.4;;;10.43;52.48
54459;BME280;40368;49.350;8.152;2024-03-25T04:00:55;994.4;;;10.4;52.49
54459;BME280;40368;49.350;8.152;2024-03-25T04:01:55;994.4;;;10.4;52.55
54459;BME280;40368;49.350;8.152;2024-03-25T04:02:55;994.4;;;10.4;52.55
54459;BME280;40368;49.350;8.152;2024-03-25T04:03:56;994.4;;;10.39;52.46
54459;BME280;40368;49.350;8.152;2024-03-25T04:04:55;994.4;;;10.38;52.62
54459;BME280;40368;49.350;8.152;2024-03-25T04:05:56;994.3;;;10.35;52.53
54459;BME280;40368;49.350;8.152;2024-03-25T04:06:55;994.3;;;10.33;52.65
54459;BME280;40368;49.350;8.152;2024-03-25T04:07:55;994.4;;;10.34;52.71
54459;BME280;40368;49.350;8.152;2024-03-25T04:08:55;994.3;;;10.34;52.66
54459;BME280;40368;49.350;8.152;2024-03-25T04:09:57;994.3;;;10.33;52.45
54459;BME280;40368;49.350;8.152;2024-03-25T04:10:55;994.3;;;10.3;52.66
54459;BME280;40368;49.350;8.152;2024-03-25T04:11:55;994.3;;;10.31;52.88
54459;BME280;40368;49.350;8.152;2024-03-25T04:12:55;994.3;;;10.3;52.78
54459;BME280;40368;49.350;8.152;2024-03-25T04:13:55;994.4;;;10.32;52.69
54459;BME280;40368;49.350;8.152;2024-03-25T04:14:55;994.3;;;10.35;52.67
54459;BME280;40368;49.350;8.152;2024-03-25T04:15:59;994.4;;;10.33;52.61
54459;BME280;40368;49.350;8.152;2024-03-25T04:16:55;994.4;;;10.32;52.75
54459;BME280;40368;49.350;8.152;2024-03-25T04:17:56;994.4;;;10.34;52.65
54459;BME280;40368;49.350;8.152;2024-03-25T04:18:55;994.4;;;10.35;52.67
54459;BME280;40368;49.350;8.152;2024-03-25T04:19:55;994.4;;;10.38;52.58
54459;BME280;40368;49.350;8.152;2024-03-25T04:20:55;994.4;;;10.39;52.49
54459;BME280;40368;49.350;8.152;2024-03-25T04:21:55;994.4;;;10.38;52.44
54459;BME280;40368;49.350;8.152;2024-03-25T04:22:56;994.4;;;10.38;52.52
54459;BME280;40368;49.350;8.152;2024-03-25T04:23:56;994.4;;;10.37;52.45
54459;BME280;40368;49.350;8.152;2024-03-25T04:24:55;994.4;;;10.37;52.64
54459;BME280;40368;49.350;8.152;2024-03-25T04:25:55;994.4;;;10.39;52.42
54459;BME280;40368;49.350;8.152;2024-03-25T04:26:56;994.5;;;10.43;52.45
54459;BME280;40368;49.350;8.152;2024-03-25T04:27:55;994.4;;;10.44;52.6
54459;BME280;40368;49.350;8.152;2024-03-25T04:28:55;994.4;;;10.45;52.4
54459;BME280;40368;49.350;8.152;2024-03-25T04:29:55;994.4;;;10.46;52.26
54459;BME280;40368;49.350;8.152;2024-03-25T04:30:55;994.4;;;10.43;52.36
54459;BME280;40368;49.350;8.152;2024-03-25T04:31:55;994.4;;;10.42;52.37
54459;BME280;40368;49.350;8.152;2024-03-25T04:32:55;994.4;;;10.43;52.29
54459;BME280;40368;49.350;8.152;2024-03-25T04:33:56;994.4;;;10.4;52.23
54459;BME280;40368;49.350;8.152;2024-03-25T04:34:55;994.4;;;10.37;52.44
54459;BME280;40368;49.350;8.152;2024-03-25T04:35:55;994.4;;;10.38;52.36
54459;BME280;40368;49.350;8.152;2024-03-25T04:36:55;994.4;;;10.38;52.44
54459;BME280;40368;49.350;8.152;2024-03-25T04:37:55;994.4;;;10.34;52.41
54459;BME280;40368;49.350;8.152;2024-03-25T04:38:56;994.4;;;10.31;52.51
54459;BME280;40368;49.350;8.152;2024-03-25T04:39:56;994.4;;;10.31;52.5
54459;BME280;40368;49.350;8.152;2024-03-25T04:40:55;994.3;;;10.33;52.45
54459;BME280;40368;49.350;8.152;2024-03-25T04:41:55;994.3;;;10.31;52.48
54459;BME280;40368;49.350;8.152;2024-03-25T04:42:55;994.4;;;10.31;52.62
54459;BME280;40368;49.350;8.152;2024-03-25T04:43:55;994.3;;;10.33;52.68
54459;BME280;40368;49.350;8.152;2024-03-25T04:44:55;994.3;;;10.34;52.61
54459;BME280;40368;49.350;8.152;2024-03-25T04:45:55;994.3;;;10.32;52.58
54459;BME280;40368;49.350;8.152;2024-03-25T04:46:55;994.3;;;10.32;52.54
54459;BME280;40368;49.350;8.152;2024-03-25T04:47:55;994.4;;;10.33;52.48
54459;BME280;40368;49.350;8.152;2024-03-25T04:48:55;994.4;;;10.31;52.48
54459;BME280;40368;49.350;8.152;2024-03-25T04:49:55;994.4;;;10.27;52.53
54459;BME280;40368;49.350;8.152;2024-03-25T04:50:55;994.4;;;10.25;52.58
54459;BME280;40368;49.350;8.152;2024-03-25T04:51:55;994.5;;;10.24;52.59
54459;BME280;40368;49.350;8.152;2024-03-25T04:52:55;994.4;;;10.22;52.66
54459;BME280;40368;49.350;8.152;2024-03-25T04:53:55;994.5;;;10.22;52.55
54459;BME280;40368;49.350;8.152;2024-03-25T04:54:55;994.5;;;10.24;52.58
54459;BME280;40368;49.350;8.152;2024-03-25T04:55:55;994.5;;;10.26;52.53
54459;BME280;40368;49.350;8.152;2024-03-25T04:56:56;994.5;;;10.28;52.48
54459;BME280;40368;49.350;8.152;2024-03-25T04:57:55;994.5;;;10.27;52.56
54459;BME280;40368;49.350;8.152;2024-03-25T04:58:55;994.5;;;10.26;52.47
54459;BME280;40368;49.350;8.152;2024-03-25T04:59:56;994.5;;;10.21;52.59
54459;BME280;40368;49.350;8.152;2024-03-25T05:00:55;994.5;;;10.18;52.83
54459;BME280;40368;49.350;8.152;2024-03-25T05:01:55;994.5;;;10.21;52.89
54459;BME280;40368;49.350;8.152;2024-03-25T05:02:55;994.5;;;10.21;52.51
54459;BME280;40368;49.350;8.152;2024-03-25T05:03:55;994.5;;;10.21;52.85
54459;BME280;40368;49.350;8.152;2024-03-25T05:04:55;994.6;;;10.18;52.83
54459;BME280;40368;49.350;8.152;2024-03-25T05:05:55;994.6;;;10.18;52.82
54459;BME280;40368;49.350;8.152;2024-03-25T05:06:56;994.6;;;10.17;52.68
54459;BME280;40368;49.350;8.152;2024-03-25T05:07:56;994.6;;;10.14;52.66
54459;BME280;40368;49.350;8.152;2024-03-25T05:08:55;994.6;;;10.14;52.74
54459;BME280;40368;49.350;8.152;2024-03-25T05:09:55;994.6;;;10.17;52.69
54459;BME280;40368;49.350;8.152;2024-03-25T05:10:56;994.6;;;10.21;52.6
54459;BME280;40368;49.350;8.152;2024-03-25T05:11:55;994.6;;;10.26;52.5
54459;BME280;40368;49.350;8.152;2024-03-25T05:12:55;994.6;;;10.26;52.29
54459;BME280;40368;49.350;8.152;2024-03-25T05:13:55;994.6;;;10.28;52.28
54459;BME280;40368;49.350;8.152;2024-03-25T05:14:55;994.5;;;10.28;52.26
54459;BME280;40368;49.350;8.152;2024-03-25T05:15:55;994.6;;;10.28;52.18
54459;BME280;40368;49.350;8.152;2024-03-25T05:16:55;994.5;;;10.28;52.33
54459;BME280;40368;49.350;8.152;2024-03-25T05:17:56;994.6;;;10.28;52.07
54459;BME280;40368;49.350;8.152;2024-03-25T05:18:55;994.6;;;10.24;52.15
54459;BME280;40368;49.350;8.152;2024-03-25T05:19:56;994.6;;;10.21;51.94
54459;BME280;40368;49.350;8.152;2024-03-25T05:20:55;994.5;;;10.18;52.15
54459;BME280;40368;49.350;8.152;2024-03-25T05:21:56;994.6;;;10.2;51.95
54459;BME280;40368;49.350;8.152;2024-03-25T05:22:55;994.6;;;10.22;52.17
54459;BME280;40368;49.350;8.152;2024-03-25T05:23:55;994.6;;;10.21;52.12
54459;BME280;40368;49.350;8.152;2024-03-25T05:24:55;994.6;;;10.2;51.84
54459;BME280;40368;49.350;8.152;2024-03-25T05:25:55;994.6;;;10.17;51.87
54459;BME280;40368;49.350;8.152;2024-03-25T05:26:56;994.6;;;10.14;52.12
54459;BME280;40368;49.350;8.152;2024-03-25T05:27:56;994.6;;;10.16;52.02
54459;BME280;40368;49.350;8.152;2024-03-25T05:28:55;994.6;;;10.13;51.85
54459;BME280;40368;49.350;8.152;2024-03-25T05:29:55;994.6;;;10.07;52.21
54459;BME280;40368;49.350;8.152;2024-03-25T05:30:56;994.6;;;10.02;52.22
54459;BME280;40368;49.350;8.152;2024-03-25T05:31:56;994.6;;;9.99;52.26